sensor_id;sensor_type;location;lat;lon;timestamp;P1;durP1;ratioP1;P2;durP2;ratioP2
20090;SDS011;10205;49.678;6.560;2024-01-30T00:00:47;13.30;;;8.50;;
20090;SDS011;10205;49.678;6.560;2024-01-30T00:03:16;9.63;;;7.17;;
20090;SDS011;10205;49.678;6.560;2024-01-30T00:05:43;10.10;;;7.60;;
20090;SDS011;10205;49.678;6.560;2024-01-30T00:08:10;12.00;;;8.13;;
20090;SDS011;10205;49.678;6.560;2024-01-30T00:10:38;9.60;;;7.50;;
20090;SDS011;10205;49.678;6.560;2024-01-30T00:13:07;12.33;;;8.30;;
20090;SDS011;10205;49.678;6.560;2024-01-30T00:15:35;10.83;;;8.07;;
20090;SDS011;10205;49.678;6.560;2024-01-30T00:18:03;13.13;;;8.97;;
20090;SDS011;10205;49.678;6.560;2024-01-30T00:20:34;11.40;;;7.63;;
20090;SDS011;10205;49.678;6.560;2024-01-30T00:23:01;11.13;;;7.67;;
20090;SDS011;10205;49.678;6.560;2024-01-30T00:25:36;12.33;;;8.93;;
20090;SDS011;10205;49.678;6.560;2024-01-30T00:28:03;11.67;;;8.57;;
20090;SDS011;10205;49.678;6.560;2024-01-30T00:30:31;9.60;;;7.83;;
20090;SDS011;10205;49.678;6.560;2024-01-30T00:32:59;10.50;;;7.43;;
20090;SDS011;10205;49.678;6.560;2024-01-30T00:35:26;11.97;;;8.40;;
20090;SDS011;10205;49.678;6.560;2024-01-30T00:37:56;10.37;;;8.13;;
20090;SDS011;10205;49.678;6.560;2024-01-30T00:40:24;11.43;;;8.33;;
20090;SDS011;10205;49.678;6.560;2024-01-30T00:42:52;9.93;;;8.20;;
20090;SDS011;10205;49.678;6.560;2024-01-30T00:45:19;11.50;;;8.27;;
20090;SDS011;10205;49.678;6.560;2024-01-30T00:47:47;12.60;;;8.50;;
20090;SDS011;10205;49.678;6.560;2024-01-30T00:50:16;11.87;;;8.07;;
20090;SDS011;10205;49.678;6.560;2024-01-30T00:52:43;9.70;;;7.60;;
20090;SDS011;10205;49.678;6.560;2024-01-30T00:55:12;11.03;;;8.43;;
20090;SDS011;10205;49.678;6.560;2024-01-30T00:57:40;11.20;;;7.97;;
20090;SDS011;10205;49.678;6.560;2024-01-30T01:00:09;11.47;;;8.30;;
20090;SDS011;10205;49.678;6.560;2024-01-30T01:02:42;9.70;;;7.87;;
20090;SDS011;10205;49.678;6.560;2024-01-30T01:05:10;9.73;;;7.70;;
20090;SDS011;10205;49.678;6.560;2024-01-30T01:07:37;12.13;;;7.90;;
20090;SDS011;10205;49.678;6.560;2024-01-30T01:10:05;10.63;;;8.23;;
20090;SDS011;10205;49.678;6.560;2024-01-30T01:12:35;10.63;;;7.97;;
20090;SDS011;10205;49.678;6.560;2024-01-30T01:15:02;11.70;;;8.13;;
20090;SDS011;10205;49.678;6.560;2024-01-30T01:17:30;10.67;;;7.93;;
20090;SDS011;10205;49.678;6.560;2024-01-30T01:19:57;10.63;;;7.73;;
20090;SDS011;10205;49.678;6.560;2024-01-30T01:22:24;10.87;;;8.27;;
20090;SDS011;10205;49.678;6.560;2024-01-30T01:24:54;11.53;;;7.73;;
20090;SDS011;10205;49.678;6.560;2024-01-30T01:27:23;12.47;;;7.90;;
20090;SDS011;10205;49.678;6.560;2024-01-30T01:29:52;10.17;;;8.43;;
20090;SDS011;10205;49.678;6.560;2024-01-30T01:32:19;10.07;;;8.17;;
20090;SDS011;10205;49.678;6.560;2024-01-30T01:34:47;10.43;;;8.37;;
20090;SDS011;10205;49.678;6.560;2024-01-30T01:37:14;10.77;;;8.20;;
20090;SDS011;10205;49.678;6.560;2024-01-30T01:39:43;11.90;;;8.07;;
20090;SDS011;10205;49.678;6.560;2024-01-30T01:42:10;10.40;;;7.93;;
20090;SDS011;10205;49.678;6.560;2024-01-30T01:44:38;9.77;;;7.97;;
20090;SDS011;10205;49.678;6.560;2024-01-30T01:47:07;11.43;;;8.47;;
20090;SDS011;10205;49.678;6.560;2024-01-30T01:49:34;10.57;;;8.17;;
20090;SDS011;10205;49.678;6.560;2024-01-30T01:52:03;10.40;;;7.47;;
20090;SDS011;10205;49.678;6.560;2024-01-30T01:54:32;12.13;;;8.17;;
20090;SDS011;10205;49.678;6.560;2024-01-30T01:56:59;12.80;;;8.53;;
20090;SDS011;10205;49.678;6.560;2024-01-30T01:59:27;10.83;;;8.50;;
20090;SDS011;10205;49.678;6.560;2024-01-30T02:01:59;12.03;;;8.50;;
20090;SDS011;10205;49.678;6.560;2024-01-30T02:04:31;11.17;;;8.07;;
20090;SDS011;10205;49.678;6.560;2024-01-30T02:06:58;13.57;;;8.67;;
20090;SDS011;10205;49.678;6.560;2024-01-30T02:09:26;10.70;;;8.43;;
20090;SDS011;10205;49.678;6.560;2024-01-30T02:11:53;11.60;;;8.33;;
20090;SDS011;10205;49.678;6.560;2024-01-30T02:14:21;12.20;;;8.33;;
20090;SDS011;10205;49.678;6.560;2024-01-30T02:16:51;11.30;;;7.73;;
20090;SDS011;10205;49.678;6.560;2024-01-30T02:19:19;10.17;;;7.63;;
20090;SDS011;10205;49.678;6.560;2024-01-30T02:21:47;11.13;;;7.27;;
20090;SDS011;10205;49.678;6.560;2024-01-30T02:24:16;11.27;;;8.37;;
20090;SDS011;10205;49.678;6.560;2024-01-30T02:26:43;10.33;;;7.37;;
20090;SDS011;10205;49.678;6.560;2024-01-30T02:29:13;8.80;;;7.20;;
20090;SDS011;10205;49.678;6.560;2024-01-30T02:31:40;10.27;;;7.60;;
20090;SDS011;10205;49.678;6.560;2024-01-30T02:34:08;9.90;;;7.97;;
20090;SDS011;10205;49.678;6.560;2024-01-30T02:36:35;10.10;;;8.00;;
20090;SDS011;10205;49.678;6.560;2024-01-30T02:39:05;10.13;;;7.33;;
20090;SDS011;10205;49.678;6.560;2024-01-30T02:41:33;8.33;;;6.80;;
20090;SDS011;10205;49.678;6.560;2024-01-30T02:44:00;10.37;;;7.63;;
20090;SDS011;10205;49.678;6.560;2024-01-30T02:46:29;9.07;;;8.13;;
20090;SDS011;10205;49.678;6.560;2024-01-30T02:48:57;8.53;;;7.50;;
20090;SDS011;10205;49.678;6.560;2024-01-30T02:51:25;9.23;;;7.50;;
20090;SDS011;10205;49.678;6.560;2024-01-30T02:53:52;9.10;;;7.67;;
20090;SDS011;10205;49.678;6.560;2024-01-30T02:56:22;8.70;;;7.57;;
20090;SDS011;10205;49.678;6.560;2024-01-30T02:58:49;10.00;;;7.57;;
20090;SDS011;10205;49.678;6.560;2024-01-30T03:01:16;11.00;;;7.77;;
20090;SDS011;10205;49.678;6.560;2024-01-30T03:03:43;9.70;;;7.57;;
20090;SDS011;10205;49.678;6.560;2024-01-30T03:06:10;8.67;;;7.77;;
20090;SDS011;10205;49.678;6.560;2024-01-30T03:08:40;9.73;;;7.53;;
20090;SDS011;10205;49.678;6.560;2024-01-30T03:11:09;9.00;;;7.07;;
20090;SDS011;10205;49.678;6.560;2024-01-30T03:13:39;9.97;;;7.60;;
20090;SDS011;10205;49.678;6.560;2024-01-30T03:16:06;11.13;;;7.70;;
20090;SDS011;10205;49.678;6.560;2024-01-30T03:18:44;9.60;;;6.97;;
20090;SDS011;10205;49.678;6.560;2024-01-30T03:21:14;9.87;;;7.77;;
20090;SDS011;10205;49.678;6.560;2024-01-30T03:23:42;8.93;;;7.50;;
20090;SDS011;10205;49.678;6.560;2024-01-30T03:26:10;9.20;;;7.40;;
20090;SDS011;10205;49.678;6.560;2024-01-30T03:28:39;9.03;;;7.00;;
20090;SDS011;10205;49.678;6.560;2024-01-30T03:31:09;11.80;;;7.47;;
20090;SDS011;10205;49.678;6.560;2024-01-30T03:33:36;9.63;;;7.07;;
20090;SDS011;10205;49.678;6.560;2024-01-30T03:36:06;8.70;;;7.00;;
20090;SDS011;10205;49.678;6.560;2024-01-30T03:38:37;9.10;;;6.63;;
20090;SDS011;10205;49.678;6.560;2024-01-30T03:41:07;9.33;;;7.10;;
20090;SDS011;10205;49.678;6.560;2024-01-30T03:43:34;9.03;;;6.83;;
20090;SDS011;10205;49.678;6.560;2024-01-30T03:46:04;9.10;;;6.70;;
20090;SDS011;10205;49.678;6.560;2024-01-30T03:48:33;8.87;;;7.50;;
20090;SDS011;10205;49.678;6.560;2024-01-30T03:51:01;8.50;;;6.57;;
20090;SDS011;10205;49.678;6.560;2024-01-30T03:53:29;8.07;;;6.40;;
20090;SDS011;10205;49.678;6.560;2024-01-30T03:55:57;8.83;;;6.87;;
20090;SDS011;10205;49.678;6.560;2024-01-30T03:58:25;9.23;;;6.80;;
20090;SDS011;10205;49.678;6.560;2024-01-30T04:00:54;7.73;;;6.33;;
20090;SDS011;10205;49.678;6.560;2024-01-30T04:03:23;8.33;;;6.77;;
20090;SDS011;10205;49.678;6.560;2024-01-30T04:05:51;9.20;;;6.90;;
20090;SDS011;10205;49.678;6.560;2024-01-30T04:08:18;8.90;;;7.00;;
20090;SDS011;10205;49.678;6.560;2024-01-30T04:10:46;9.73;;;7.13;;
20090;SDS011;10205;49.678;6.560;2024-01-30T04:13:14;8.33;;;6.57;;
20090;SDS011;10205;49.678;6.560;2024-01-30T04:15:41;7.43;;;6.60;;
20090;SDS011;10205;49.678;6.560;2024-01-30T04:18:09;8.73;;;6.93;;
20090;SDS011;10205;49.678;6.560;2024-01-30T04:20:37;8.30;;;6.60;;
20090;SDS011;10205;49.678;6.560;2024-01-30T04:23:05;9.73;;;6.73;;
20090;SDS011;10205;49.678;6.560;2024-01-30T04:25:33;8.47;;;7.03;;
20090;SDS011;10205;49.678;6.560;2024-01-30T04:28:01;11.03;;;7.20;;
20090;SDS011;10205;49.678;6.560;2024-01-30T04:30:31;8.60;;;6.77;;
20090;SDS011;10205;49.678;6.560;2024-01-30T04:32:58;9.10;;;7.83;;
20090;SDS011;10205;49.678;6.560;2024-01-30T04:35:25;8.37;;;7.47;;
20090;SDS011;10205;49.678;6.560;2024-01-30T04:37:54;7.67;;;6.27;;
20090;SDS011;10205;49.678;6.560;2024-01-30T04:40:22;8.47;;;6.80;;
20090;SDS011;10205;49.678;6.560;2024-01-30T04:42:49;8.93;;;6.90;;
20090;SDS011;10205;49.678;6.560;2024-01-30T04:45:16;7.83;;;6.57;;
20090;SDS011;10205;49.678;6.560;2024-01-30T04:47:44;7.93;;;6.73;;
20090;SDS011;10205;49.678;6.560;2024-01-30T04:50:11;8.50;;;6.50;;
20090;SDS011;10205;49.678;6.560;2024-01-30T04:52:39;7.23;;;6.30;;
20090;SDS011;10205;49.678;6.560;2024-01-30T04:55:08;8.23;;;6.77;;
20090;SDS011;10205;49.678;6.560;2024-01-30T04:57:35;7.70;;;6.77;;
20090;SDS011;10205;49.678;6.560;2024-01-30T05:00:03;9.70;;;7.03;;
20090;SDS011;10205;49.678;6.560;2024-01-30T05:02:32;8.50;;;6.47;;
20090;SDS011;10205;49.678;6.560;2024-01-30T05:04:59;7.03;;;5.87;;
20090;SDS011;10205;49.678;6.560;2024-01-30T05:07:28;8.00;;;5.90;;
20090;SDS011;10205;49.678;6.560;2024-01-30T05:09:56;7.40;;;6.23;;
20090;SDS011;10205;49.678;6.560;2024-01-30T05:12:25;9.00;;;6.93;;
20090;SDS011;10205;49.678;6.560;2024-01-30T05:14:52;8.90;;;6.80;;
20090;SDS011;10205;49.678;6.560;2024-01-30T05:17:19;7.70;;;6.90;;
20090;SDS011;10205;49.678;6.560;2024-01-30T05:19:49;7.27;;;6.53;;
20090;SDS011;10205;49.678;6.560;2024-01-30T05:22:25;6.83;;;6.03;;
20090;SDS011;10205;49.678;6.560;2024-01-30T05:24:52;8.17;;;7.20;;
20090;SDS011;10205;49.678;6.560;2024-01-30T05:27:21;11.87;;;6.20;;
20090;SDS011;10205;49.678;6.560;2024-01-30T05:29:50;7.83;;;6.43;;
20090;SDS011;10205;49.678;6.560;2024-01-30T05:32:17;9.80;;;6.83;;
20090;SDS011;10205;49.678;6.560;2024-01-30T05:34:45;7.07;;;6.37;;
20090;SDS011;10205;49.678;6.560;2024-01-30T05:37:15;7.40;;;6.17;;
20090;SDS011;10205;49.678;6.560;2024-01-30T05:39:43;7.37;;;6.07;;
20090;SDS011;10205;49.678;6.560;2024-01-30T05:42:10;7.20;;;6.20;;
20090;SDS011;10205;49.678;6.560;2024-01-30T05:44:37;8.07;;;6.30;;
20090;SDS011;10205;49.678;6.560;2024-01-30T05:47:06;7.90;;;6.20;;
20090;SDS011;10205;49.678;6.560;2024-01-30T05:49:33;7.43;;;5.80;;
20090;SDS011;10205;49.678;6.560;2024-01-30T05:52:04;7.00;;;6.30;;
20090;SDS011;10205;49.678;6.560;2024-01-30T05:54:32;7.20;;;6.10;;
20090;SDS011;10205;49.678;6.560;2024-01-30T05:56:59;7.37;;;6.60;;
20090;SDS011;10205;49.678;6.560;2024-01-30T05:59:27;7.83;;;6.40;;
20090;SDS011;10205;49.678;6.560;2024-01-30T06:01:54;7.80;;;6.27;;
20090;SDS011;10205;49.678;6.560;2024-01-30T06:04:23;6.60;;;5.73;;
20090;SDS011;10205;49.678;6.560;2024-01-30T06:06:50;6.90;;;5.80;;
20090;SDS011;10205;49.678;6.560;2024-01-30T06:09:19;7.50;;;6.80;;
20090;SDS011;10205;49.678;6.560;2024-01-30T06:11:46;8.60;;;6.40;;
20090;SDS011;10205;49.678;6.560;2024-01-30T06:14:13;7.50;;;6.80;;
20090;SDS011;10205;49.678;6.560;2024-01-30T06:16:41;7.57;;;6.87;;
20090;SDS011;10205;49.678;6.560;2024-01-30T06:19:08;8.23;;;6.63;;
20090;SDS011;10205;49.678;6.560;2024-01-30T06:21:37;8.10;;;7.00;;
20090;SDS011;10205;49.678;6.560;2024-01-30T06:24:05;7.57;;;6.77;;
20090;SDS011;10205;49.678;6.560;2024-01-30T06:26:34;8.03;;;6.50;;
20090;SDS011;10205;49.678;6.560;2024-01-30T06:29:02;7.77;;;6.50;;
20090;SDS011;10205;49.678;6.560;2024-01-30T06:31:29;7.33;;;6.37;;
20090;SDS011;10205;49.678;6.560;2024-01-30T06:33:59;7.23;;;6.33;;
20090;SDS011;10205;49.678;6.560;2024-01-30T06:36:28;7.23;;;6.50;;
20090;SDS011;10205;49.678;6.560;2024-01-30T06:38:56;7.30;;;6.60;;
20090;SDS011;10205;49.678;6.560;2024-01-30T06:41:23;7.77;;;6.63;;
20090;SDS011;10205;49.678;6.560;2024-01-30T06:43:51;8.67;;;6.47;;
20090;SDS011;10205;49.678;6.560;2024-01-30T06:46:19;6.97;;;6.13;;
20090;SDS011;10205;49.678;6.560;2024-01-30T06:48:46;6.83;;;6.13;;
20090;SDS011;10205;49.678;6.560;2024-01-30T06:51:13;8.57;;;6.63;;
20090;SDS011;10205;49.678;6.560;2024-01-30T06:53:42;6.43;;;5.80;;
20090;SDS011;10205;49.678;6.560;2024-01-30T06:56:13;7.47;;;6.67;;
20090;SDS011;10205;49.678;6.560;2024-01-30T06:58:46;7.87;;;6.77;;
20090;SDS011;10205;49.678;6.560;2024-01-30T07:01:13;8.13;;;6.23;;
20090;SDS011;10205;49.678;6.560;2024-01-30T07:03:41;8.27;;;6.07;;
20090;SDS011;10205;49.678;6.560;2024-01-30T07:06:09;7.30;;;6.17;;
20090;SDS011;10205;49.678;6.560;2024-01-30T07:08:37;7.30;;;6.20;;
20090;SDS011;10205;49.678;6.560;2024-01-30T07:11:05;6.90;;;6.23;;
20090;SDS011;10205;49.678;6.560;2024-01-30T07:13:34;7.33;;;5.80;;
20090;SDS011;10205;49.678;6.560;2024-01-30T07:16:01;7.13;;;6.00;;
20090;SDS011;10205;49.678;6.560;2024-01-30T07:18:30;7.60;;;6.20;;
20090;SDS011;10205;49.678;6.560;2024-01-30T07:20:57;6.90;;;6.17;;
20090;SDS011;10205;49.678;6.560;2024-01-30T07:23:24;6.70;;;6.00;;
20090;SDS011;10205;49.678;6.560;2024-01-30T07:25:52;7.37;;;6.47;;
20090;SDS011;10205;49.678;6.560;2024-01-30T07:28:19;7.07;;;6.30;;
20090;SDS011;10205;49.678;6.560;2024-01-30T07:30:48;7.30;;;6.60;;
20090;SDS011;10205;49.678;6.560;2024-01-30T07:33:15;8.03;;;6.50;;
20090;SDS011;10205;49.678;6.560;2024-01-30T07:35:43;7.10;;;5.90;;
20090;SDS011;10205;49.678;6.560;2024-01-30T07:38:12;8.50;;;7.60;;
20090;SDS011;10205;49.678;6.560;2024-01-30T07:40:41;11.20;;;8.53;;
20090;SDS011;10205;49.678;6.560;2024-01-30T07:43:09;11.27;;;7.93;;
20090;SDS011;10205;49.678;6.560;2024-01-30T07:45:36;10.40;;;7.57;;
20090;SDS011;10205;49.678;6.560;2024-01-30T07:48:07;9.03;;;7.37;;
20090;SDS011;10205;49.678;6.560;2024-01-30T07:50:37;8.33;;;7.37;;
20090;SDS011;10205;49.678;6.560;2024-01-30T07:53:04;9.23;;;8.33;;
20090;SDS011;10205;49.678;6.560;2024-01-30T07:55:32;10.13;;;7.90;;
20090;SDS011;10205;49.678;6.560;2024-01-30T07:57:59;10.53;;;8.73;;
20090;SDS011;10205;49.678;6.560;2024-01-30T08:00:30;10.97;;;8.60;;
20090;SDS011;10205;49.678;6.560;2024-01-30T08:02:57;10.63;;;7.97;;
20090;SDS011;10205;49.678;6.560;2024-01-30T08:05:31;8.97;;;7.87;;
20090;SDS011;10205;49.678;6.560;2024-01-30T08:07:58;9.40;;;8.40;;
20090;SDS011;10205;49.678;6.560;2024-01-30T08:10:31;9.63;;;8.63;;
20090;SDS011;10205;49.678;6.560;2024-01-30T08:12:58;10.67;;;7.80;;
20090;SDS011;10205;49.678;6.560;2024-01-30T08:15:26;9.60;;;7.40;;
20090;SDS011;10205;49.678;6.560;2024-01-30T08:17:53;9.20;;;8.30;;
20090;SDS011;10205;49.678;6.560;2024-01-30T08:20:23;11.20;;;7.77;;
20090;SDS011;10205;49.678;6.560;2024-01-30T08:22:52;9.27;;;7.53;;
20090;SDS011;10205;49.678;6.560;2024-01-30T08:25:19;9.37;;;7.30;;
20090;SDS011;10205;49.678;6.560;2024-01-30T08:27:49;9.00;;;7.03;;
20090;SDS011;10205;49.678;6.560;2024-01-30T08:30:18;8.03;;;6.67;;
20090;SDS011;10205;49.678;6.560;2024-01-30T08:32:46;9.80;;;7.10;;
20090;SDS011;10205;49.678;6.560;2024-01-30T08:35:13;9.37;;;7.63;;
20090;SDS011;10205;49.678;6.560;2024-01-30T08:37:41;8.97;;;7.20;;
20090;SDS011;10205;49.678;6.560;2024-01-30T08:40:10;7.83;;;7.03;;
20090;SDS011;10205;49.678;6.560;2024-01-30T08:42:38;9.10;;;7.43;;
20090;SDS011;10205;49.678;6.560;2024-01-30T08:45:06;8.13;;;6.93;;
20090;SDS011;10205;49.678;6.560;2024-01-30T08:47:34;9.60;;;8.70;;
20090;SDS011;10205;49.678;6.560;2024-01-30T08:50:02;9.63;;;7.53;;
20090;SDS011;10205;49.678;6.560;2024-01-30T08:52:32;8.37;;;7.43;;
20090;SDS011;10205;49.678;6.560;2024-01-30T08:54:59;9.03;;;8.00;;
20090;SDS011;10205;49.678;6.560;2024-01-30T08:57:32;8.57;;;7.77;;
20090;SDS011;10205;49.678;6.560;2024-01-30T09:00:10;10.77;;;8.40;;
20090;SDS011;10205;49.678;6.560;2024-01-30T09:02:38;9.77;;;7.63;;
20090;SDS011;10205;49.678;6.560;2024-01-30T09:05:06;9.63;;;8.03;;
20090;SDS011;10205;49.678;6.560;2024-01-30T09:07:34;8.73;;;7.60;;
20090;SDS011;10205;49.678;6.560;2024-01-30T09:10:01;8.90;;;7.10;;
20090;SDS011;10205;49.678;6.560;2024-01-30T09:12:29;9.30;;;7.77;;
20090;SDS011;10205;49.678;6.560;2024-01-30T09:14:58;10.20;;;7.93;;
20090;SDS011;10205;49.678;6.560;2024-01-30T09:17:27;10.57;;;9.17;;
20090;SDS011;10205;49.678;6.560;2024-01-30T09:19:55;8.67;;;7.77;;
20090;SDS011;10205;49.678;6.560;2024-01-30T09:22:22;11.07;;;9.87;;
20090;SDS011;10205;49.678;6.560;2024-01-30T09:24:49;10.53;;;7.90;;
20090;SDS011;10205;49.678;6.560;2024-01-30T09:27:17;12.17;;;9.63;;
20090;SDS011;10205;49.678;6.560;2024-01-30T09:29:45;9.53;;;7.67;;
20090;SDS011;10205;49.678;6.560;2024-01-30T09:32:14;9.23;;;8.23;;
20090;SDS011;10205;49.678;6.560;2024-01-30T09:34:41;9.07;;;8.20;;
20090;SDS011;10205;49.678;6.560;2024-01-30T09:37:09;11.30;;;8.00;;
20090;SDS011;10205;49.678;6.560;2024-01-30T09:39:37;8.60;;;7.23;;
20090;SDS011;10205;49.678;6.560;2024-01-30T09:42:05;11.57;;;8.77;;
20090;SDS011;10205;49.678;6.560;2024-01-30T09:44:59;10.97;;;9.77;;
20090;SDS011;10205;49.678;6.560;2024-01-30T09:47:28;11.27;;;8.43;;
20090;SDS011;10205;49.678;6.560;2024-01-30T09:50:04;10.27;;;9.20;;
20090;SDS011;10205;49.678;6.560;2024-01-30T09:52:33;10.10;;;8.13;;
20090;SDS011;10205;49.678;6.560;2024-01-30T09:55:02;10.87;;;8.57;;
20090;SDS011;10205;49.678;6.560;2024-01-30T09:57:30;11.30;;;8.33;;
20090;SDS011;10205;49.678;6.560;2024-01-30T09:59:59;10.17;;;8.47;;
20090;SDS011;10205;49.678;6.560;2024-01-30T10:02:26;10.90;;;8.33;;
20090;SDS011;10205;49.678;6.560;2024-01-30T10:04:54;10.43;;;7.97;;
20090;SDS011;10205;49.678;6.560;2024-01-30T10:07:25;10.17;;;8.27;;
20090;SDS011;10205;49.678;6.560;2024-01-30T10:09:53;16.83;;;9.63;;
20090;SDS011;10205;49.678;6.560;2024-01-30T10:12:21;11.37;;;9.03;;
20090;SDS011;10205;49.678;6.560;2024-01-30T10:14:49;10.53;;;7.83;;
20090;SDS011;10205;49.678;6.560;2024-01-30T10:17:26;10.60;;;9.37;;
20090;SDS011;10205;49.678;6.560;2024-01-30T10:19:54;12.20;;;8.90;;
20090;SDS011;10205;49.678;6.560;2024-01-30T10:22:25;9.63;;;7.47;;
20090;SDS011;10205;49.678;6.560;2024-01-30T10:24:52;9.60;;;8.20;;
20090;SDS011;10205;49.678;6.560;2024-01-30T10:27:23;10.20;;;8.47;;
20090;SDS011;10205;49.678;6.560;2024-01-30T10:29:52;8.83;;;7.70;;
20090;SDS011;10205;49.678;6.560;2024-01-30T10:32:20;9.43;;;7.80;;
20090;SDS011;10205;49.678;6.560;2024-01-30T10:34:50;10.97;;;8.13;;
20090;SDS011;10205;49.678;6.560;2024-01-30T10:37:18;10.10;;;7.80;;
20090;SDS011;10205;49.678;6.560;2024-01-30T10:39:51;10.10;;;7.33;;
20090;SDS011;10205;49.678;6.560;2024-01-30T10:42:26;10.03;;;8.03;;
20090;SDS011;10205;49.678;6.560;2024-01-30T10:45:00;9.33;;;7.20;;
20090;SDS011;10205;49.678;6.560;2024-01-30T10:47:34;12.03;;;7.67;;
20090;SDS011;10205;49.678;6.560;2024-01-30T10:50:09;11.97;;;7.87;;
20090;SDS011;10205;49.678;6.560;2024-01-30T10:52:39;9.33;;;7.50;;
20090;SDS011;10205;49.678;6.560;2024-01-30T10:55:09;9.37;;;8.00;;
20090;SDS011;10205;49.678;6.560;2024-01-30T10:57:38;11.53;;;7.40;;
20090;SDS011;10205;49.678;6.560;2024-01-30T11:00:07;9.33;;;7.47;;
20090;SDS011;10205;49.678;6.560;2024-01-30T11:02:37;9.30;;;6.43;;
20090;SDS011;10205;49.678;6.560;2024-01-30T11:05:09;7.80;;;6.70;;
20090;SDS011;10205;49.678;6.560;2024-01-30T11:07:38;8.80;;;6.43;;
20090;SDS011;10205;49.678;6.560;2024-01-30T11:10:06;7.33;;;6.10;;
20090;SDS011;10205;49.678;6.560;2024-01-30T11:12:40;8.33;;;7.40;;
20090;SDS011;10205;49.678;6.560;2024-01-30T11:15:08;9.13;;;6.53;;
20090;SDS011;10205;49.678;6.560;2024-01-30T11:17:41;8.20;;;7.30;;
20090;SDS011;10205;49.678;6.560;2024-01-30T11:20:19;8.47;;;6.57;;
20090;SDS011;10205;49.678;6.560;2024-01-30T11:22:53;10.80;;;6.03;;
20090;SDS011;10205;49.678;6.560;2024-01-30T11:25:24;8.30;;;6.87;;
20090;SDS011;10205;49.678;6.560;2024-01-30T11:27:53;10.40;;;7.10;;
20090;SDS011;10205;49.678;6.560;2024-01-30T11:30:22;9.73;;;6.27;;
20090;SDS011;10205;49.678;6.560;2024-01-30T11:33:00;8.03;;;6.23;;
20090;SDS011;10205;49.678;6.560;2024-01-30T11:35:32;7.13;;;5.43;;
20090;SDS011;10205;49.678;6.560;2024-01-30T11:38:04;7.60;;;6.10;;
20090;SDS011;10205;49.678;6.560;2024-01-30T11:40:33;6.53;;;5.80;;
20090;SDS011;10205;49.678;6.560;2024-01-30T11:43:04;7.07;;;5.90;;
20090;SDS011;10205;49.678;6.560;2024-01-30T11:45:34;6.17;;;5.53;;
20090;SDS011;10205;49.678;6.560;2024-01-30T11:48:03;7.83;;;5.70;;
20090;SDS011;10205;49.678;6.560;2024-01-30T11:50:37;6.90;;;5.77;;
20090;SDS011;10205;49.678;6.560;2024-01-30T11:53:09;8.40;;;5.63;;
20090;SDS011;10205;49.678;6.560;2024-01-30T11:55:37;6.70;;;5.43;;
20090;SDS011;10205;49.678;6.560;2024-01-30T11:58:06;8.60;;;6.07;;
20090;SDS011;10205;49.678;6.560;2024-01-30T12:00:34;9.23;;;6.20;;
20090;SDS011;10205;49.678;6.560;2024-01-30T12:03:03;9.67;;;6.30;;
20090;SDS011;10205;49.678;6.560;2024-01-30T12:05:33;7.27;;;5.93;;
20090;SDS011;10205;49.678;6.560;2024-01-30T12:08:13;7.80;;;5.83;;
20090;SDS011;10205;49.678;6.560;2024-01-30T12:10:43;8.70;;;5.87;;
20090;SDS011;10205;49.678;6.560;2024-01-30T12:13:10;9.27;;;6.00;;
20090;SDS011;10205;49.678;6.560;2024-01-30T12:15:40;7.17;;;5.53;;
20090;SDS011;10205;49.678;6.560;2024-01-30T12:18:08;10.20;;;6.17;;
20090;SDS011;10205;49.678;6.560;2024-01-30T12:20:40;6.53;;;5.53;;
20090;SDS011;10205;49.678;6.560;2024-01-30T12:23:08;8.43;;;5.73;;
20090;SDS011;10205;49.678;6.560;2024-01-30T12:25:45;6.67;;;5.57;;
20090;SDS011;10205;49.678;6.560;2024-01-30T12:28:13;5.87;;;5.27;;
20090;SDS011;10205;49.678;6.560;2024-01-30T12:30:40;8.63;;;5.47;;
20090;SDS011;10205;49.678;6.560;2024-01-30T12:33:08;7.10;;;5.07;;
20090;SDS011;10205;49.678;6.560;2024-01-30T12:35:46;5.87;;;4.37;;
20090;SDS011;10205;49.678;6.560;2024-01-30T12:38:15;6.23;;;5.30;;
20090;SDS011;10205;49.678;6.560;2024-01-30T12:40:42;9.30;;;4.83;;
20090;SDS011;10205;49.678;6.560;2024-01-30T12:43:10;5.93;;;5.33;;
20090;SDS011;10205;49.678;6.560;2024-01-30T12:45:41;6.93;;;5.60;;
20090;SDS011;10205;49.678;6.560;2024-01-30T12:48:10;7.00;;;5.60;;
20090;SDS011;10205;49.678;6.560;2024-01-30T12:50:38;7.53;;;5.70;;
20090;SDS011;10205;49.678;6.560;2024-01-30T12:53:06;8.17;;;5.80;;
20090;SDS011;10205;49.678;6.560;2024-01-30T12:55:34;6.87;;;5.60;;
20090;SDS011;10205;49.678;6.560;2024-01-30T12:58:01;5.83;;;5.20;;
20090;SDS011;10205;49.678;6.560;2024-01-30T13:00:29;6.63;;;5.30;;
20090;SDS011;10205;49.678;6.560;2024-01-30T13:02:57;9.30;;;5.40;;
20090;SDS011;10205;49.678;6.560;2024-01-30T13:05:25;7.50;;;5.57;;
20090;SDS011;10205;49.678;6.560;2024-01-30T13:07:53;9.03;;;5.30;;
20090;SDS011;10205;49.678;6.560;2024-01-30T13:10:23;9.23;;;5.67;;
20090;SDS011;10205;49.678;6.560;2024-01-30T13:12:52;7.57;;;5.07;;
20090;SDS011;10205;49.678;6.560;2024-01-30T13:15:20;9.37;;;5.33;;
20090;SDS011;10205;49.678;6.560;2024-01-30T13:17:48;8.23;;;5.80;;
20090;SDS011;10205;49.678;6.560;2024-01-30T13:20:21;8.73;;;5.60;;
20090;SDS011;10205;49.678;6.560;2024-01-30T13:22:49;6.30;;;5.10;;
20090;SDS011;10205;49.678;6.560;2024-01-30T13:25:18;7.10;;;5.40;;
20090;SDS011;10205;49.678;6.560;2024-01-30T13:27:47;5.80;;;5.20;;
20090;SDS011;10205;49.678;6.560;2024-01-30T13:30:15;6.13;;;5.30;;
20090;SDS011;10205;49.678;6.560;2024-01-30T13:32:43;6.40;;;5.20;;
20090;SDS011;10205;49.678;6.560;2024-01-30T13:35:11;9.23;;;5.83;;
20090;SDS011;10205;49.678;6.560;2024-01-30T13:37:38;6.60;;;5.03;;
20090;SDS011;10205;49.678;6.560;2024-01-30T13:40:07;6.90;;;5.93;;
20090;SDS011;10205;49.678;6.560;2024-01-30T13:42:36;6.53;;;5.43;;
20090;SDS011;10205;49.678;6.560;2024-01-30T13:45:05;6.60;;;5.63;;
20090;SDS011;10205;49.678;6.560;2024-01-30T13:47:34;7.07;;;5.27;;
20090;SDS011;10205;49.678;6.560;2024-01-30T13:50:03;6.97;;;5.40;;
20090;SDS011;10205;49.678;6.560;2024-01-30T13:52:32;6.97;;;5.53;;
20090;SDS011;10205;49.678;6.560;2024-01-30T13:55:00;7.55;;;5.32;;
20090;SDS011;10205;49.678;6.560;2024-01-30T13:57:29;8.90;;;6.22;;
20090;SDS011;10205;49.678;6.560;2024-01-30T14:00:01;6.23;;;5.50;;
20090;SDS011;10205;49.678;6.560;2024-01-30T14:02:33;6.78;;;5.47;;
20090;SDS011;10205;49.678;6.560;2024-01-30T14:05:00;6.20;;;5.27;;
20090;SDS011;10205;49.678;6.560;2024-01-30T14:07:29;7.00;;;5.60;;
20090;SDS011;10205;49.678;6.560;2024-01-30T14:09:57;8.97;;;5.33;;
20090;SDS011;10205;49.678;6.560;2024-01-30T14:12:25;6.57;;;4.87;;
20090;SDS011;10205;49.678;6.560;2024-01-30T14:14:52;6.90;;;5.43;;
20090;SDS011;10205;49.678;6.560;2024-01-30T14:17:20;8.40;;;5.23;;
20090;SDS011;10205;49.678;6.560;2024-01-30T14:19:49;7.33;;;5.70;;
20090;SDS011;10205;49.678;6.560;2024-01-30T14:22:17;11.50;;;5.60;;
20090;SDS011;10205;49.678;6.560;2024-01-30T14:24:44;8.23;;;5.50;;
20090;SDS011;10205;49.678;6.560;2024-01-30T14:27:12;6.10;;;5.43;;
20090;SDS011;10205;49.678;6.560;2024-01-30T14:29:40;6.70;;;5.83;;
20090;SDS011;10205;49.678;6.560;2024-01-30T14:32:10;6.43;;;5.50;;
20090;SDS011;10205;49.678;6.560;2024-01-30T14:34:40;6.88;;;5.70;;
20090;SDS011;10205;49.678;6.560;2024-01-30T14:37:10;7.15;;;5.40;;
20090;SDS011;10205;49.678;6.560;2024-01-30T14:39:38;6.53;;;5.60;;
20090;SDS011;10205;49.678;6.560;2024-01-30T14:42:06;9.97;;;5.53;;
20090;SDS011;10205;49.678;6.560;2024-01-30T14:44:33;7.43;;;5.53;;
20090;SDS011;10205;49.678;6.560;2024-01-30T14:47:01;7.57;;;5.37;;
20090;SDS011;10205;49.678;6.560;2024-01-30T14:49:28;8.68;;;5.07;;
20090;SDS011;10205;49.678;6.560;2024-01-30T14:51:56;6.00;;;5.05;;